Time;durP1;ratioP1;P1;durP2;ratioP2;P2;SDS_P1;SDS_P2;PMS_P1;PMS_P2;Temp;Humidity;BMP_temperature;BMP_pressure;BME280_temperature;BME280_humidity;BME280_pressure;Samples;Min_cycle;Max_cycle;Signal;HPM_P1;HPM_P2
2023/12/04 00:00:55;;;;;;;29.17;15.75;;;;;;;2.56;74.05;99742.88;5034358;28;20111;-78
2023/12/04 00:03:22;;;;;;;26.27;15.48;;;;;;;2.56;74.26;99742.88;5034290;28;20077;-79
2023/12/04 00:05:49;;;;;;;28.10;14.95;;;;;;;2.56;74.34;99737.66;5033924;28;20056;-78
2023/12/04 00:08:15;;;;;;;29.20;15.95;;;;;;;2.56;73.91;99732.47;5034024;28;20049;-78
2023/12/04 00:10:42;;;;;;;27.65;16.02;;;;;;;2.56;74.23;99724.69;5033983;28;20100;-78
2023/12/04 00:13:08;;;;;;;29.85;16.63;;;;;;;2.56;74.28;99711.69;5034209;28;20451;-78
2023/12/04 00:15:35;;;;;;;30.42;16.35;;;;;;;2.57;74.54;99710.78;5033956;28;20050;-79
2023/12/04 00:18:01;;;;;;;32.17;16.67;;;;;;;2.58;74.69;99712.50;5034014;28;20398;-78
2023/12/04 00:20:28;;;;;;;30.77;16.30;;;;;;;2.59;74.08;99702.06;5033891;28;20452;-78
2023/12/04 00:22:55;;;;;;;33.33;16.67;;;;;;;2.58;74.57;99705.56;5016281;28;20140;-79
2023/12/04 00:25:21;;;;;;;28.95;15.77;;;;;;;2.60;74.59;99700.31;5033551;28;20065;-79
2023/12/04 00:27:48;;;;;;;28.80;15.70;;;;;;;2.60;74.65;99698.59;5034019;28;20049;-78
2023/12/04 00:30:14;;;;;;;32.85;17.02;;;;;;;2.60;74.39;99697.72;5033786;28;20095;-78
2023/12/04 00:32:41;;;;;;;30.15;14.63;;;;;;;2.60;74.08;99703.78;5033696;28;20057;-79
2023/12/04 00:35:07;;;;;;;32.10;15.52;;;;;;;2.59;74.18;99688.22;5033383;28;20049;-78
2023/12/04 00:37:38;;;;;;;28.45;15.73;;;;;;;2.58;74.23;99684.75;5033543;28;20521;-79
2023/12/04 00:40:07;;;;;;;29.88;15.60;;;;;;;2.57;74.29;99679.59;5033753;28;20061;-77
2023/12/04 00:42:34;;;;;;;28.50;15.32;;;;;;;2.58;74.71;99673.53;5033637;28;20049;-78
2023/12/04 00:45:02;;;;;;;28.20;16.08;;;;;;;2.57;74.27;99666.59;5033380;28;20065;-79
2023/12/04 00:47:29;;;;;;;27.58;14.95;;;;;;;2.58;74.70;99665.75;5033356;28;20537;-78
2023/12/04 00:49:55;;;;;;;27.92;15.23;;;;;;;2.58;74.79;99663.16;5033414;28;20053;-79
2023/12/04 00:52:22;;;;;;;26.80;14.55;;;;;;;2.59;74.85;99651.84;5033375;28;20053;-79
2023/12/04 00:54:50;;;;;;;28.58;15.07;;;;;;;2.58;74.86;99650.97;5033262;28;20050;-78
2023/12/04 00:57:17;;;;;;;30.13;15.73;;;;;;;2.59;74.83;99644.06;5033369;28;20061;-80
2023/12/04 00:59:43;;;;;;;26.80;14.82;;;;;;;2.58;74.62;99642.34;5015623;28;20111;-78
2023/12/04 01:02:10;;;;;;;27.25;13.90;;;;;;;2.58;74.52;99635.38;5033065;28;20138;-78
2023/12/04 01:04:40;;;;;;;27.17;14.73;;;;;;;2.57;74.11;99641.50;5015243;28;20053;-78
2023/12/04 01:07:06;;;;;;;27.65;14.52;;;;;;;2.58;74.81;99638.00;5015331;28;20054;-79
2023/12/04 01:09:36;;;;;;;27.63;14.23;;;;;;;2.57;74.55;99638.03;5032217;28;20527;-78
2023/12/04 01:12:03;;;;;;;28.20;13.75;;;;;;;2.59;75.27;99639.69;5033083;28;20693;-80
2023/12/04 01:14:30;;;;;;;26.95;13.93;;;;;;;2.60;74.78;99628.41;5032815;28;20136;-77
2023/12/04 01:16:56;;;;;;;28.52;13.85;;;;;;;2.62;75.03;99631.00;5032899;28;20100;-78
2023/12/04 01:19:23;;;;;;;24.48;13.18;;;;;;;2.62;74.82;99632.72;5032836;28;20046;-79
2023/12/04 01:21:49;;;;;;;22.70;12.50;;;;;;;2.62;74.64;99628.38;5032952;28;20096;-78
2023/12/04 01:24:16;;;;;;;26.45;13.45;;;;;;;2.62;74.90;99628.38;5032771;28;20046;-79
2023/12/04 01:26:42;;;;;;;24.88;13.80;;;;;;;2.62;74.71;99628.38;5032787;28;20045;-80
2023/12/04 01:29:09;;;;;;;26.10;13.48;;;;;;;2.62;75.01;99630.13;5032620;28;20065;-78
2023/12/04 01:31:35;;;;;;;23.38;13.45;;;;;;;2.60;74.80;99630.16;5032595;28;20052;-78
2023/12/04 01:34:02;;;;;;;26.45;13.40;;;;;;;2.60;74.77;99615.44;5032242;28;20060;-79
2023/12/04 01:36:28;;;;;;;25.45;13.55;;;;;;;2.60;75.14;99619.75;5032664;28;20046;-78
2023/12/04 01:38:55;;;;;;;23.60;13.07;;;;;;;2.61;75.01;99611.06;5032509;28;20061;-79
2023/12/04 01:41:22;;;;;;;27.05;14.45;;;;;;;2.61;75.22;99611.06;5032310;28;20533;-78
2023/12/04 01:43:48;;;;;;;25.15;14.07;;;;;;;2.60;74.96;99610.22;5032416;28;20049;-79
2023/12/04 01:46:17;;;;;;;24.77;14.57;;;;;;;2.60;74.89;99593.78;5032098;28;20088;-78
2023/12/04 01:48:47;;;;;;;27.73;14.00;;;;;;;2.62;75.06;99596.34;5014753;28;20812;-77
2023/12/04 01:51:14;;;;;;;27.38;14.90;;;;;;;2.63;75.03;99591.09;5032388;28;20045;-78
2023/12/04 01:53:42;;;;;;;23.95;13.30;;;;;;;2.64;75.51;99585.00;5014684;28;20162;-79
2023/12/04 01:56:10;;;;;;;26.77;14.02;;;;;;;2.66;75.52;99582.38;5031932;28;20081;-79
2023/12/04 01:58:37;;;;;;;25.42;14.05;;;;;;;2.68;75.44;99584.03;5032097;28;20438;-78
2023/12/04 02:01:05;;;;;;;25.17;14.38;;;;;;;2.70;75.79;99571.84;5031875;28;20045;-78
2023/12/04 02:03:32;;;;;;;25.98;14.18;;;;;;;2.72;75.38;99577.84;5032136;28;20096;-79
2023/12/04 02:06:02;;;;;;;25.30;13.73;;;;;;;2.76;75.09;99576.00;5031866;28;20479;-77
2023/12/04 02:08:30;;;;;;;27.50;14.60;;;;;;;2.76;75.05;99568.22;5032091;28;20077;-78
2023/12/04 02:10:56;;;;;;;27.05;14.57;;;;;;;2.79;75.29;99575.06;5014432;28;20398;-80
2023/12/04 02:13:23;;;;;;;26.02;13.85;;;;;;;2.79;75.40;99572.47;5031730;28;20049;-79
2023/12/04 02:15:53;;;;;;;24.83;13.85;;;;;;;2.78;74.65;99570.78;5031396;28;20103;-79
2023/12/04 02:18:21;;;;;;;26.50;14.27;;;;;;;2.79;75.12;99562.06;5014099;28;20053;-80
2023/12/04 02:20:47;;;;;;;24.20;13.80;;;;;;;2.79;75.29;99565.53;5031508;28;20049;-78
2023/12/04 02:23:14;;;;;;;26.02;13.65;;;;;;;2.80;74.97;99556.00;5031003;28;20065;-79
2023/12/04 02:25:40;;;;;;;23.10;13.35;;;;;;;2.82;75.23;99562.00;5031321;28;20144;-80
2023/12/04 02:28:13;;;;;;;23.90;13.73;;;;;;;2.81;74.82;99550.72;5013806;28;20057;-76
2023/12/04 02:30:43;;;;;;;24.80;13.55;;;;;;;2.83;75.18;99548.97;5031596;28;20053;-78
2023/12/04 02:33:11;;;;;;;22.73;12.63;;;;;;;2.85;75.32;99543.72;5031324;28;20049;-79
2023/12/04 02:35:40;;;;;;;26.63;13.85;;;;;;;2.87;75.31;99547.13;5031228;28;20053;-79
2023/12/04 02:38:07;;;;;;;22.90;12.60;;;;;;;2.89;75.50;99540.13;5031473;28;20084;-79
2023/12/04 02:40:34;;;;;;;22.95;12.45;;;;;;;2.91;75.42;99540.94;5013525;28;20085;-78
2023/12/04 02:43:01;;;;;;;24.73;13.02;;;;;;;2.93;75.56;99531.34;5031458;28;20050;-78
2023/12/04 02:45:27;;;;;;;25.90;13.88;;;;;;;2.95;75.30;99539.13;5031158;28;20053;-79
2023/12/04 02:47:54;;;;;;;24.10;13.40;;;;;;;2.97;75.31;99530.38;5031203;28;20485;-80
2023/12/04 02:50:20;;;;;;;22.65;13.10;;;;;;;3.00;75.12;99529.44;5013587;28;20073;-78
2023/12/04 02:52:47;;;;;;;23.85;13.50;;;;;;;2.99;74.75;99520.75;5031093;28;20053;-79
2023/12/04 02:55:13;;;;;;;22.90;13.18;;;;;;;3.01;75.01;99520.72;5030760;28;20057;-78
2023/12/04 02:57:40;;;;;;;25.60;13.93;;;;;;;3.01;74.94;99520.72;5031221;28;20053;-80
2023/12/04 03:00:07;;;;;;;23.50;13.63;;;;;;;3.00;74.57;99522.47;5030986;28;20041;-78
2023/12/04 03:02:33;;;;;;;24.30;13.75;;;;;;;3.02;74.53;99513.78;5031008;28;20041;-79
2023/12/04 03:05:00;;;;;;;24.67;13.77;;;;;;;3.01;74.81;99515.53;5030710;28;20489;-79
2023/12/04 03:07:26;;;;;;;23.52;13.13;;;;;;;3.01;74.56;99512.91;5030919;28;20081;-79
2023/12/04 03:09:53;;;;;;;24.45;13.15;;;;;;;3.02;75.03;99512.03;5030648;28;20093;-78
2023/12/04 03:12:20;;;;;;;27.90;12.90;;;;;;;3.02;74.78;99508.59;5030796;28;20514;-78
2023/12/04 03:14:46;;;;;;;23.90;13.48;;;;;;;3.02;74.67;99509.41;5030623;28;20080;-78
2023/12/04 03:17:13;;;;;;;22.92;12.60;;;;;;;3.03;74.70;99502.47;5013489;28;20461;-79
2023/12/04 03:19:39;;;;;;;22.50;12.32;;;;;;;3.03;74.58;99503.31;5030712;28;20128;-79
2023/12/04 03:22:06;;;;;;;23.38;13.43;;;;;;;3.03;74.41;99502.47;5013029;28;20129;-79
2023/12/04 03:24:32;;;;;;;22.90;13.05;;;;;;;3.03;74.68;99492.91;5030409;28;20413;-79
2023/12/04 03:26:59;;;;;;;27.08;13.95;;;;;;;3.02;74.53;99493.81;5013254;28;20060;-78
2023/12/04 03:29:25;;;;;;;26.77;13.50;;;;;;;3.03;74.21;99486.88;5013012;28;20060;-78
2023/12/04 03:31:52;;;;;;;24.42;13.00;;;;;;;3.03;74.48;99481.69;5013099;28;20061;-79
2023/12/04 03:34:18;;;;;;;21.48;12.93;;;;;;;3.02;74.32;99482.59;5033273;28;20577;-79
2023/12/04 03:36:45;;;;;;;21.63;12.52;;;;;;;3.03;74.14;99481.69;5017070;28;20080;-80
2023/12/04 03:39:11;;;;;;;19.23;12.10;;;;;;;3.02;73.93;99485.19;5017206;28;20060;-79
2023/12/04 03:41:38;;;;;;;25.35;12.38;;;;;;;3.02;73.93;99473.00;5034733;28;20049;-78
2023/12/04 03:44:04;;;;;;;22.48;12.30;;;;;;;3.02;73.88;99472.19;5016789;28;20524;-79
2023/12/04 03:46:31;;;;;;;24.23;13.15;;;;;;;3.02;73.79;99477.38;5016970;28;20054;-78
2023/12/04 03:48:57;;;;;;;24.08;12.85;;;;;;;3.00;73.71;99472.22;5034376;28;20501;-78
2023/12/04 03:51:24;;;;;;;23.65;12.55;;;;;;;2.97;73.80;99462.78;5034455;28;20049;-78
2023/12/04 03:53:51;;;;;;;21.80;12.68;;;;;;;2.97;73.47;99462.78;5034628;28;20053;-78
2023/12/04 03:56:17;;;;;;;20.90;12.13;;;;;;;2.96;73.88;99460.22;5033999;28;20777;-79
2023/12/04 03:58:43;;;;;;;25.17;12.45;;;;;;;2.93;73.85;99450.75;5034352;28;20551;-79
2023/12/04 04:01:10;;;;;;;22.23;13.13;;;;;;;2.92;73.64;99449.03;5034378;28;20064;-78
2023/12/04 04:03:36;;;;;;;22.30;11.65;;;;;;;2.91;73.80;99451.72;5034272;28;20049;-78
2023/12/04 04:06:04;;;;;;;20.15;11.45;;;;;;;2.90;73.96;99444.78;5016339;28;20404;-80
2023/12/04 04:08:30;;;;;;;24.80;12.63;;;;;;;2.88;73.36;99442.25;5016742;28;20088;-78
2023/12/04 04:10:57;;;;;;;21.02;12.20;;;;;;;2.88;73.39;99437.06;5033957;28;20076;-79
2023/12/04 04:13:23;;;;;;;20.63;11.20;;;;;;;2.87;73.37;99443.13;5033931;28;20053;-80
2023/12/04 04:15:51;;;;;;;25.35;11.13;;;;;;;2.84;73.64;99431.06;5033790;28;20140;-78
2023/12/04 04:18:17;;;;;;;19.60;11.18;;;;;;;2.83;73.27;99429.38;5033960;28;20453;-79
2023/12/04 04:20:44;;;;;;;19.30;11.48;;;;;;;2.83;73.60;99425.91;5016183;28;20056;-78
2023/12/04 04:23:10;;;;;;;23.33;11.60;;;;;;;2.83;73.12;99436.31;5033829;28;20708;-79
2023/12/04 04:25:37;;;;;;;22.25;11.25;;;;;;;2.81;73.58;99423.34;5016185;28;20132;-79
2023/12/04 04:28:03;;;;;;;20.20;11.18;;;;;;;2.81;73.40;99425.13;5033650;28;20490;-79
2023/12/04 04:30:30;;;;;;;21.42;10.68;;;;;;;2.80;73.68;99428.63;5033780;28;20481;-80
2023/12/04 04:32:57;;;;;;;21.08;10.88;;;;;;;2.80;73.13;99419.06;5033694;28;20057;-79
2023/12/04 04:35:24;;;;;;;20.25;11.43;;;;;;;2.80;73.62;99424.28;5033296;28;20053;-79
2023/12/04 04:37:50;;;;;;;20.42;10.63;;;;;;;2.80;73.73;99428.63;5033791;28;20057;-78
2023/12/04 04:40:17;;;;;;;20.98;10.57;;;;;;;2.78;73.89;99415.69;5016031;28;20059;-79
2023/12/04 04:42:44;;;;;;;18.73;10.23;;;;;;;2.79;73.60;99416.50;5033386;28;20553;-78
2023/12/04 04:45:10;;;;;;;17.13;9.77;;;;;;;2.79;73.40;99419.97;5032198;28;20049;-80
2023/12/04 04:47:37;;;;;;;24.33;11.35;;;;;;;2.78;73.31;99404.41;5015805;28;20060;-79
2023/12/04 04:50:04;;;;;;;21.00;10.85;;;;;;;2.80;73.36;99428.63;5033519;28;20135;-79
2023/12/04 04:52:30;;;;;;;19.25;10.73;;;;;;;2.80;73.87;99413.03;5033500;28;20160;-80
2023/12/04 04:54:58;;;;;;;16.45;9.32;;;;;;;2.81;73.69;99415.56;5033177;28;20045;-78
2023/12/04 04:57:25;;;;;;;16.77;9.50;;;;;;;2.83;73.74;99412.91;5033183;28;20041;-79
2023/12/04 04:59:51;;;;;;;19.55;9.50;;;;;;;2.85;73.76;99411.13;5033126;28;20085;-79
2023/12/04 05:02:18;;;;;;;18.23;9.98;;;;;;;2.86;73.42;99408.50;5032796;28;20085;-79
2023/12/04 05:04:44;;;;;;;15.30;9.05;;;;;;;2.89;73.51;99407.56;5032891;28;20132;-79
2023/12/04 05:07:11;;;;;;;16.42;9.82;;;;;;;2.92;73.94;99411.81;5033268;28;20103;-78
2023/12/04 05:09:37;;;;;;;20.73;10.38;;;;;;;2.93;73.42;99406.56;5032896;28;20053;-79
2023/12/04 05:12:04;;;;;;;17.40;9.73;;;;;;;2.95;73.49;99396.13;5033021;28;20072;-78
2023/12/04 05:14:31;;;;;;;18.65;9.77;;;;;;;2.97;73.55;99396.91;5032661;28;20140;-79
2023/12/04 05:16:57;;;;;;;16.13;9.18;;;;;;;2.99;73.49;99387.31;5032769;28;20049;-80
2023/12/04 05:19:24;;;;;;;18.15;9.40;;;;;;;3.02;73.96;99388.97;5032917;28;20050;-79
2023/12/04 05:21:50;;;;;;;15.75;9.27;;;;;;;3.04;73.53;99384.56;5032989;28;20502;-78
2023/12/04 05:24:17;;;;;;;18.27;9.10;;;;;;;3.08;73.29;99391.38;5032717;28;20049;-79
2023/12/04 05:26:43;;;;;;;19.00;10.25;;;;;;;3.09;73.65;99390.47;5032870;28;20076;-79
2023/12/04 05:29:10;;;;;;;16.50;9.40;;;;;;;3.10;73.80;99382.59;5032864;28;20129;-80
2023/12/04 05:31:36;;;;;;;17.27;9.57;;;;;;;3.13;73.92;99379.91;5032622;28;20060;-78
2023/12/04 05:34:03;;;;;;;18.67;9.60;;;;;;;3.17;73.77;99382.44;5015132;28;20097;-79
2023/12/04 05:36:30;;;;;;;18.65;9.43;;;;;;;3.19;73.27;99383.22;5032790;28;20061;-78
2023/12/04 05:38:56;;;;;;;21.85;10.02;;;;;;;3.19;73.41;99378.88;5032481;28;20056;-80
2023/12/04 05:41:27;;;;;;;20.38;10.32;;;;;;;3.22;73.10;99373.56;5032667;28;20088;-78
2023/12/04 05:43:53;;;;;;;22.90;9.98;;;;;;;3.23;73.06;99372.66;5014795;28;20100;-80
2023/12/04 05:46:20;;;;;;;20.10;9.63;;;;;;;3.24;73.24;99376.97;5032175;28;20140;-79
2023/12/04 05:48:47;;;;;;;17.92;9.88;;;;;;;3.26;73.05;99374.31;5032472;28;20566;-79
2023/12/04 05:51:15;;;;;;;19.30;8.60;;;;;;;3.28;72.99;99371.66;5032381;28;20050;-78
2023/12/04 05:53:41;;;;;;;17.02;9.45;;;;;;;3.29;73.02;99369.00;5014561;28;20105;-79
2023/12/04 05:56:08;;;;;;;18.10;9.45;;;;;;;3.31;72.92;99374.16;5031808;28;20058;-78
2023/12/04 05:58:35;;;;;;;16.75;9.30;;;;;;;3.33;73.13;99369.75;5032155;28;20055;-79
2023/12/04 06:01:02;;;;;;;17.40;8.90;;;;;;;3.35;73.25;99365.34;5032287;28;20048;-79
2023/12/04 06:03:29;;;;;;;16.40;9.23;;;;;;;3.38;72.93;99371.31;5014612;28;20045;-79
2023/12/04 06:05:55;;;;;;;12.38;8.00;;;;;;;3.40;72.95;99366.03;5031906;28;20137;-77
2023/12/04 06:08:24;;;;;;;18.40;9.05;;;;;;;3.43;72.93;99365.94;5032045;28;20482;-78
2023/12/04 06:10:51;;;;;;;17.17;9.10;;;;;;;3.45;73.14;99356.34;5032210;28;20111;-78
2023/12/04 06:13:17;;;;;;;16.70;8.35;;;;;;;3.46;72.86;99365.84;5014277;28;20141;-78
2023/12/04 06:15:44;;;;;;;16.85;8.25;;;;;;;3.49;72.75;99370.94;5014235;28;20073;-79
2023/12/04 06:18:10;;;;;;;14.85;8.30;;;;;;;3.51;72.51;99371.72;5032033;28;20088;-78
2023/12/04 06:20:37;;;;;;;14.95;8.60;;;;;;;3.54;72.45;99367.34;5031905;28;20049;-78
2023/12/04 06:23:04;;;;;;;17.80;8.57;;;;;;;3.56;72.40;99371.59;5014315;28;20056;-79
2023/12/04 06:25:30;;;;;;;16.70;8.18;;;;;;;3.59;72.45;99378.44;5013950;28;20041;-77
2023/12/04 06:27:57;;;;;;;14.75;8.93;;;;;;;3.61;72.63;99374.03;5031705;28;20132;-77
2023/12/04 06:30:24;;;;;;;15.00;8.43;;;;;;;3.61;72.28;99369.66;5014202;28;20049;-77
2023/12/04 06:32:51;;;;;;;15.77;8.70;;;;;;;3.64;72.40;99368.72;5031763;28;20081;-80
2023/12/04 06:35:18;;;;;;;19.75;8.20;;;;;;;3.65;72.05;99376.47;5031491;28;20049;-79
2023/12/04 06:37:48;;;;;;;16.17;8.18;;;;;;;3.65;71.91;99375.63;5031496;28;20046;-79
2023/12/04 06:40:15;;;;;;;16.05;7.80;;;;;;;3.67;72.14;99373.81;5031321;28;20045;-79
2023/12/04 06:42:41;;;;;;;14.73;8.10;;;;;;;3.69;71.87;99372.00;5031513;28;20060;-80
2023/12/04 06:45:08;;;;;;;14.05;8.15;;;;;;;3.70;71.88;99378.06;5031134;28;20049;-79
2023/12/04 06:47:36;;;;;;;13.73;7.78;;;;;;;3.71;71.79;99371.94;5031211;28;20157;-78
2023/12/04 06:50:03;;;;;;;13.32;7.82;;;;;;;3.72;71.79;99366.69;5029685;28;20060;-78
2023/12/04 06:52:30;;;;;;;17.23;7.25;;;;;;;3.74;71.45;99357.06;5029428;28;20132;-78
2023/12/04 06:54:56;;;;;;;13.20;8.00;;;;;;;3.74;71.25;99358.84;5011588;28;20457;-78
2023/12/04 06:57:23;;;;;;;13.77;8.10;;;;;;;3.74;71.62;99364.03;5029602;28;20049;-78
2023/12/04 06:59:50;;;;;;;12.55;7.60;;;;;;;3.75;71.68;99361.38;5029460;28;20113;-77
2023/12/04 07:02:17;;;;;;;13.52;7.55;;;;;;;3.77;71.59;99353.50;5030331;28;20132;-80
2023/12/04 07:04:43;;;;;;;12.65;7.63;;;;;;;3.76;71.54;99352.66;5013285;28;20061;-77
2023/12/04 07:07:12;;;;;;;12.57;7.78;;;;;;;3.77;71.55;99343.94;5030865;28;20096;-78
2023/12/04 07:09:39;;;;;;;11.70;7.10;;;;;;;3.79;71.52;99341.28;5030765;28;20053;-79
2023/12/04 07:12:06;;;;;;;13.98;7.57;;;;;;;3.80;71.32;99343.00;5013758;28;20107;-76
2023/12/04 07:14:33;;;;;;;15.23;7.78;;;;;;;3.80;71.68;99336.91;5030760;28;20048;-77
2023/12/04 07:17:00;;;;;;;11.23;7.20;;;;;;;3.82;71.20;99342.94;5030910;28;20159;-78
2023/12/04 07:19:26;;;;;;;13.73;7.90;;;;;;;3.82;71.36;99337.72;5030886;28;20540;-79
2023/12/04 07:21:53;;;;;;;12.23;6.72;;;;;;;3.82;70.68;99330.78;5031017;28;20057;-78
2023/12/04 07:24:20;;;;;;;15.73;6.82;;;;;;;3.82;71.07;99324.72;5013274;28;20057;-76
2023/12/04 07:26:47;;;;;;;13.75;7.72;;;;;;;3.82;71.06;99319.50;5013203;28;20049;-78
2023/12/04 07:29:13;;;;;;;11.90;7.55;;;;;;;3.82;70.73;99319.50;5030871;28;20146;-78
2023/12/04 07:31:41;;;;;;;14.00;6.70;;;;;;;3.81;70.29;99317.81;5030840;28;20041;-78
2023/12/04 07:34:07;;;;;;;11.65;6.60;;;;;;;3.81;70.80;99325.63;5030658;28;20125;-78
2023/12/04 07:36:34;;;;;;;11.77;7.13;;;;;;;3.81;70.58;99321.25;5030587;28;20057;-78
2023/12/04 07:39:00;;;;;;;13.40;7.82;;;;;;;3.81;70.73;99317.81;5030916;28;20049;-77
2023/12/04 07:41:27;;;;;;;11.45;6.70;;;;;;;3.81;71.05;99310.00;5013028;28;20060;-78
2023/12/04 07:43:54;;;;;;;11.18;7.43;;;;;;;3.80;70.74;99301.34;5030833;28;20060;-78
2023/12/04 07:46:21;;;;;;;12.73;7.25;;;;;;;3.80;70.60;99301.34;5012893;28;20045;-78
2023/12/04 07:48:47;;;;;;;11.38;6.60;;;;;;;3.80;70.83;99300.47;5013008;28;20049;-78
2023/12/04 07:51:14;;;;;;;12.95;7.10;;;;;;;3.80;70.71;99308.28;5030583;28;20050;-77
2023/12/04 07:53:41;;;;;;;13.02;7.43;;;;;;;3.80;70.76;99303.06;5030747;28;20072;-77
2023/12/04 07:56:08;;;;;;;14.15;7.60;;;;;;;3.80;70.73;99296.13;5012885;28;20041;-77
2023/12/04 07:58:35;;;;;;;13.05;7.32;;;;;;;3.81;70.86;99310.00;5030634;28;20116;-77
2023/12/04 08:01:01;;;;;;;12.55;7.47;;;;;;;3.81;71.04;99297.81;5012948;28;20132;-78
2023/12/04 08:03:28;;;;;;;11.70;6.80;;;;;;;3.82;70.93;99301.28;5030320;28;20490;-78
2023/12/04 08:05:55;;;;;;;14.48;7.65;;;;;;;3.82;71.08;99298.69;5030168;28;20052;-79
2023/12/04 08:08:21;;;;;;;11.25;7.00;;;;;;;3.83;71.12;99284.75;5012927;28;20092;-77
2023/12/04 08:10:48;;;;;;;12.35;6.63;;;;;;;3.83;71.06;99285.59;5030327;28;20085;-78
2023/12/04 08:13:15;;;;;;;12.15;6.90;;;;;;;3.84;71.09;99283.84;5012845;28;20490;-78
2023/12/04 08:15:44;;;;;;;13.10;6.72;;;;;;;3.85;71.05;99289.00;5030184;28;20049;-78
2023/12/04 08:18:10;;;;;;;10.02;6.57;;;;;;;3.85;70.91;99281.19;5012631;28;20056;-78
2023/12/04 08:20:36;;;;;;;10.85;7.00;;;;;;;3.86;70.90;99277.69;5033452;28;20482;-79
2023/12/04 08:23:07;;;;;;;10.77;6.53;;;;;;;3.87;71.14;99275.91;5034204;28;20053;-78
2023/12/04 08:25:34;;;;;;;9.63;6.03;;;;;;;3.89;71.00;99279.31;5033883;28;20144;-79
2023/12/04 08:28:01;;;;;;;11.05;6.80;;;;;;;3.89;71.08;99268.91;5016599;28;20111;-77
2023/12/04 08:30:28;;;;;;;11.15;6.88;;;;;;;3.91;71.16;99267.09;5033950;28;20046;-78
2023/12/04 08:32:54;;;;;;;11.38;6.53;;;;;;;3.91;70.83;99260.13;5033789;28;20141;-79
2023/12/04 08:35:21;;;;;;;10.88;6.70;;;;;;;3.94;70.91;99259.16;5034041;28;20045;-76
2023/12/04 08:37:48;;;;;;;11.60;7.15;;;;;;;3.96;71.08;99256.50;5016233;28;20501;-78
2023/12/04 08:40:15;;;;;;;11.18;7.18;;;;;;;3.99;70.87;99253.78;5016288;28;20053;-78
2023/12/04 08:42:44;;;;;;;10.63;7.18;;;;;;;4.01;70.74;99254.56;5033658;28;20422;-78
2023/12/04 08:45:11;;;;;;;10.07;6.70;;;;;;;4.03;71.21;99251.00;5015711;28;20453;-78
2023/12/04 08:47:37;;;;;;;11.05;6.68;;;;;;;4.05;70.93;99253.56;5016004;28;20132;-78
2023/12/04 08:50:05;;;;;;;10.10;6.60;;;;;;;4.08;70.84;99234.34;5033599;28;20057;-79
2023/12/04 08:52:31;;;;;;;12.35;7.18;;;;;;;4.10;71.11;99238.59;5033607;28;20049;-77
2023/12/04 08:54:58;;;;;;;9.75;6.25;;;;;;;4.12;71.04;99241.13;5033361;28;20069;-76
2023/12/04 08:57:24;;;;;;;11.13;7.55;;;;;;;4.14;70.72;99241.91;5033384;28;20056;-79
2023/12/04 08:59:51;;;;;;;10.57;6.53;;;;;;;4.16;70.82;99237.50;5033263;28;20156;-77
2023/12/04 09:02:17;;;;;;;11.20;7.18;;;;;;;4.18;70.68;99243.50;5033496;28;20100;-78
2023/12/04 09:04:44;;;;;;;12.38;7.32;;;;;;;4.19;70.40;99244.34;5015624;28;20041;-78
2023/12/04 09:07:11;;;;;;;10.50;6.90;;;;;;;4.19;70.58;99240.00;5015773;28;20049;-78
2023/12/04 09:09:58;;;;;;;10.93;6.50;;;;;;;4.21;70.68;99239.91;5033339;28;20046;-78
2023/12/04 09:12:26;;;;;;;10.70;6.53;;;;;;;4.21;70.43;99242.53;5033065;28;20064;-78
2023/12/04 09:14:52;;;;;;;10.45;6.80;;;;;;;4.20;70.54;99231.28;5033073;28;20088;-79
2023/12/04 09:17:20;;;;;;;10.52;6.80;;;;;;;4.20;70.40;99231.28;5015512;28;20131;-78
2023/12/04 09:19:48;;;;;;;11.23;6.43;;;;;;;4.22;70.13;99233.81;5015566;28;20056;-78
2023/12/04 09:22:15;;;;;;;12.68;7.35;;;;;;;4.23;70.55;99230.31;5032883;28;20046;-78
2023/12/04 09:24:46;;;;;;;11.63;6.10;;;;;;;4.24;70.57;99222.44;5032769;28;20064;-79
2023/12/04 09:27:13;;;;;;;11.40;7.28;;;;;;;4.26;70.86;99222.38;5015427;28;20054;-77
2023/12/04 09:29:41;;;;;;;9.23;6.35;;;;;;;4.28;70.47;99226.63;5032854;28;20543;-78
2023/12/04 09:32:07;;;;;;;9.77;6.65;;;;;;;4.32;71.08;99222.13;5032455;28;20088;-78
2023/12/04 09:34:34;;;;;;;11.27;6.78;;;;;;;4.35;70.79;99218.53;5032632;28;20057;-78
2023/12/04 09:37:00;;;;;;;11.85;6.65;;;;;;;4.39;70.80;99220.97;5032611;28;20504;-78
2023/12/04 09:39:36;;;;;;;9.05;5.72;;;;;;;4.43;71.01;99216.47;5032721;28;20072;-77
2023/12/04 09:42:03;;;;;;;11.05;7.32;;;;;;;4.47;70.84;99220.66;5032886;28;20046;-79
2023/12/04 09:44:30;;;;;;;10.18;6.95;;;;;;;4.51;70.86;99226.56;5032552;28;20053;-78
2023/12/04 09:46:58;;;;;;;10.75;6.80;;;;;;;4.55;70.62;99225.53;5032721;28;20045;-78
2023/12/04 09:49:28;;;;;;;9.35;6.50;;;;;;;4.56;69.77;99220.28;5095969;23;20480;-84
2023/12/04 09:51:57;;;;;;;10.55;7.22;;;;;;;4.61;69.44;99219.25;5042852;28;20076;-84
2023/12/04 09:54:24;;;;;;;11.70;7.65;;;;;;;4.64;70.56;99216.50;5006065;28;20136;-83
2023/12/04 09:56:51;;;;;;;8.75;6.45;;;;;;;4.67;70.59;99205.94;5021746;28;20049;-83
2023/12/04 09:59:23;;;;;;;11.45;6.85;;;;;;;4.71;70.20;99207.50;5022811;28;20121;-83
2023/12/04 10:01:51;;;;;;;9.73;6.82;;;;;;;4.73;70.36;99210.06;5022409;28;20049;-83
2023/12/04 10:04:17;;;;;;;10.90;7.13;;;;;;;4.76;70.53;99197.75;5013693;28;20050;-83
2023/12/04 10:06:45;;;;;;;10.40;7.05;;;;;;;4.78;69.87;99180.28;5014240;28;20053;-83
2023/12/04 10:09:13;;;;;;;13.15;7.25;;;;;;;4.82;70.37;99189.66;4998003;28;20056;-84
2023/12/04 10:11:41;;;;;;;10.73;6.97;;;;;;;4.86;70.10;99181.72;5015406;28;20467;-84
2023/12/04 10:14:19;;;;;;;9.40;6.32;;;;;;;4.86;66.54;99181.72;5017914;28;20140;-83
2023/12/04 10:16:46;;;;;;;9.70;6.50;;;;;;;4.91;70.04;99177.16;5016502;28;20471;-83
2023/12/04 10:19:25;;;;;;;9.27;6.47;;;;;;;4.91;67.04;99174.53;5018186;28;20054;-84
2023/12/04 10:21:54;;;;;;;14.23;6.95;;;;;;;4.96;69.04;99172.56;4999368;28;20050;-83
2023/12/04 10:24:30;;;;;;;9.85;6.40;;;;;;;4.93;66.69;99163.13;5016782;28;20500;-84
2023/12/04 10:27:01;;;;;;;8.35;5.93;;;;;;;4.98;68.20;99160.34;5018087;28;20053;-86
2023/12/04 10:29:39;;;;;;;8.10;5.63;;;;;;;5.00;69.49;99158.50;4999156;28;20066;-83
2023/12/04 10:32:05;;;;;;;9.18;6.00;;;;;;;5.04;69.80;99147.00;5019916;28;20060;-83
2023/12/04 10:34:33;;;;;;;8.27;5.60;;;;;;;5.04;69.64;99131.34;5018245;28;20092;-83
2023/12/04 10:37:00;;;;;;;9.30;5.85;;;;;;;5.06;69.42;99136.50;5013205;28;20166;-84
2023/12/04 10:39:28;;;;;;;7.90;5.57;;;;;;;5.08;69.44;99124.22;5016476;28;20113;-84
2023/12/04 10:42:04;;;;;;;8.20;5.72;;;;;;;5.05;66.33;99132.22;5019565;28;20054;-83
2023/12/04 10:44:34;;;;;;;9.70;5.93;;;;;;;5.08;67.75;99119.00;5018638;28;20456;-85
2023/12/04 10:47:04;;;;;;;9.48;6.25;;;;;;;5.08;67.66;99121.63;5017610;28;20056;-87
2023/12/04 10:49:31;;;;;;;9.02;5.97;;;;;;;5.10;69.05;99111.97;4999227;28;20053;-84
2023/12/04 10:52:01;;;;;;;8.00;5.45;;;;;;;5.12;69.26;99119.75;5000339;28;20050;-83
2023/12/04 10:54:27;;;;;;;7.88;5.72;;;;;;;5.12;69.22;99114.53;5016170;28;20131;-83
2023/12/04 10:57:00;;;;;;;9.23;5.53;;;;;;;5.12;66.99;99111.91;5017798;28;20061;-83
2023/12/04 10:59:32;;;;;;;7.60;5.47;;;;;;;5.14;68.41;99110.06;5016121;28;20137;-83
2023/12/04 11:02:02;;;;;;;7.65;5.45;;;;;;;5.15;67.69;99102.19;5017722;28;20132;-83
2023/12/04 11:04:32;;;;;;;8.20;5.55;;;;;;;5.16;68.04;99092.59;5016192;28;20133;-83
2023/12/04 11:07:03;;;;;;;8.65;5.90;;;;;;;5.17;67.05;99096.91;5020176;28;20074;-86
2023/12/04 11:09:35;;;;;;;8.30;5.32;;;;;;;5.18;67.29;99090.75;5000296;28;20054;-83
2023/12/04 11:12:06;;;;;;;8.90;6.13;;;;;;;5.20;67.54;99081.13;5016653;28;20049;-84
2023/12/04 11:14:42;;;;;;;7.93;5.30;;;;;;;5.18;65.96;99075.97;5018170;28;20057;-83
2023/12/04 11:17:13;;;;;;;8.55;5.75;;;;;;;5.22;67.90;99079.25;5017008;28;20057;-84
2023/12/04 11:19:55;;;;;;;7.93;5.35;;;;;;;5.18;64.77;99072.50;5015658;28;20085;-83
2023/12/04 11:22:23;;;;;;;7.30;5.40;;;;;;;5.22;68.63;99068.81;5012516;28;20074;-83
2023/12/04 11:24:51;;;;;;;8.48;5.72;;;;;;;5.22;68.47;99071.44;5011411;28;20057;-83
2023/12/04 11:27:18;;;;;;;7.72;5.50;;;;;;;5.22;68.27;99071.44;5011735;28;20136;-83
2023/12/04 11:29:48;;;;;;;9.45;6.25;;;;;;;5.19;66.05;99062.00;4994079;28;20104;-83
2023/12/04 11:32:18;;;;;;;9.35;5.85;;;;;;;5.22;68.43;99058.38;5011419;28;20492;-83